createdAt,value
2019-01-15T00:01:06.944Z,74.40
2019-01-15T00:03:35.320Z,72.40
2019-01-15T00:06:03.461Z,71.20
2019-01-15T00:08:31.423Z,71.70
2019-01-15T00:10:59.465Z,71.70
2019-01-15T00:13:27.454Z,71.10
2019-01-15T00:15:55.447Z,71.30
2019-01-15T00:18:23.561Z,72.20
2019-01-15T00:20:52.146Z,71.20
2019-01-15T00:23:20.858Z,71.00
2019-01-15T00:25:48.833Z,70.00
2019-01-15T00:28:16.864Z,69.70
2019-01-15T00:30:44.978Z,69.10
2019-01-15T00:33:13.330Z,68.80
2019-01-15T00:35:41.326Z,67.10
2019-01-15T00:38:10.515Z,67.60
2019-01-15T00:40:38.536Z,65.60
2019-01-15T00:43:07.023Z,65.60
2019-01-15T00:45:35.060Z,65.30
2019-01-15T00:48:03.266Z,64.40
2019-01-15T00:50:34.188Z,64.40
2019-01-15T00:53:02.364Z,65.20
2019-01-15T00:55:30.349Z,64.90
2019-01-15T00:57:59.322Z,65.00
2019-01-15T01:00:28.621Z,65.10
2019-01-15T01:02:56.705Z,65.30
2019-01-15T01:05:24.760Z,64.40
2019-01-15T01:07:53.138Z,65.20
2019-01-15T01:10:21.106Z,64.70
2019-01-15T01:12:49.175Z,64.40
2019-01-15T01:15:17.664Z,65.00
2019-01-15T01:17:45.780Z,65.20
2019-01-15T01:20:18.461Z,65.50
2019-01-15T01:22:46.732Z,64.80
2019-01-15T01:25:14.863Z,65.60
2019-01-15T01:27:42.848Z,66.10
2019-01-15T01:30:18.914Z,64.90
2019-01-15T01:32:47.444Z,66.20
2019-01-15T01:35:15.565Z,65.10
2019-01-15T01:37:43.817Z,65.60
2019-01-15T01:40:15.019Z,67.10
2019-01-15T01:47:40.325Z,65.80
2019-01-15T01:50:10.370Z,66.30
2019-01-15T01:52:38.719Z,66.30
2019-01-15T01:55:08.727Z,67.00
2019-01-15T01:57:36.693Z,66.10
2019-01-15T02:00:08.900Z,66.30
2019-01-15T02:02:37.188Z,66.70
2019-01-15T02:05:05.924Z,66.60
2019-01-15T02:07:34.291Z,67.20
2019-01-15T02:10:03.393Z,67.10
2019-01-15T02:12:36.812Z,67.00
2019-01-15T02:15:03.629Z,67.20
2019-01-15T02:17:33.053Z,67.20
2019-01-15T02:20:01.867Z,67.10
2019-01-15T02:22:30.076Z,67.60
2019-01-15T02:24:58.187Z,67.80
2019-01-15T02:27:26.762Z,67.60
2019-01-15T02:29:54.916Z,70.10
2019-01-15T02:32:22.964Z,68.30
2019-01-15T02:34:50.935Z,67.80
2019-01-15T02:37:18.891Z,68.20
2019-01-15T02:39:46.833Z,68.10
2019-01-15T02:42:14.776Z,68.20
2019-01-15T02:44:42.740Z,70.00
2019-01-15T02:47:10.812Z,68.40
2019-01-15T02:49:38.772Z,69.20
2019-01-15T02:52:07.187Z,68.20
2019-01-15T02:54:35.682Z,69.50
2019-01-15T02:57:04.558Z,68.80
2019-01-15T02:59:32.707Z,68.80
2019-01-15T03:02:00.940Z,68.60
2019-01-15T03:04:28.945Z,68.40
2019-01-15T03:06:57.190Z,68.60
2019-01-15T03:09:25.204Z,68.40
2019-01-15T03:11:53.206Z,69.10
2019-01-15T03:14:22.268Z,68.80
2019-01-15T03:16:51.285Z,68.70
2019-01-15T03:21:48.590Z,67.70
2019-01-15T03:24:16.515Z,68.30
2019-01-15T03:26:44.786Z,68.40
2019-01-15T03:29:12.743Z,68.50
2019-01-15T03:31:41.076Z,67.50
2019-01-15T03:34:09.341Z,68.20
2019-01-15T03:36:38.543Z,69.10
2019-01-15T03:39:08.884Z,68.70
2019-01-15T03:41:36.868Z,69.20
2019-01-15T03:44:05.124Z,68.40
2019-01-15T03:46:33.407Z,69.40
2019-01-15T03:49:01.386Z,68.70
2019-01-15T03:51:30.543Z,68.60
2019-01-15T03:53:58.822Z,67.80
2019-01-15T03:56:27.125Z,67.20
2019-01-15T03:58:55.993Z,67.50
2019-01-15T04:01:24.318Z,67.90
2019-01-15T04:03:52.320Z,68.30
2019-01-15T04:06:20.554Z,68.60
2019-01-15T04:08:48.560Z,67.50
2019-01-15T04:11:16.839Z,66.80
2019-01-15T04:13:44.782Z,66.40
2019-01-15T04:16:12.779Z,66.90
2019-01-15T04:18:42.918Z,67.10
2019-01-15T04:21:11.743Z,67.30
2019-01-15T04:23:39.707Z,66.90
2019-01-15T04:26:07.703Z,67.10
2019-01-15T04:28:35.729Z,66.90
2019-01-15T04:31:03.730Z,68.50
2019-01-15T04:33:31.716Z,67.40
2019-01-15T04:35:59.754Z,67.50
2019-01-15T04:38:28.831Z,68.10
2019-01-15T04:40:58.050Z,68.40
2019-01-15T04:43:26.919Z,69.00
2019-01-15T04:45:57.840Z,69.00
2019-01-15T04:48:27.641Z,69.50
2019-01-15T04:50:56.772Z,69.10
2019-01-15T04:53:25.212Z,69.70
2019-01-15T04:55:53.188Z,69.80
2019-01-15T04:58:21.283Z,70.10
2019-01-15T05:00:49.435Z,69.70
2019-01-15T05:03:17.671Z,70.20
2019-01-15T05:05:45.644Z,69.70
2019-01-15T05:08:13.618Z,70.20
2019-01-15T05:10:42.065Z,70.50
2019-01-15T05:13:10.102Z,70.90
2019-01-15T05:15:38.048Z,71.00
2019-01-15T05:18:06.013Z,70.70
2019-01-15T05:20:35.796Z,71.20
2019-01-15T05:23:04.049Z,70.90
2019-01-15T05:25:32.335Z,70.60
2019-01-15T05:28:00.934Z,69.80
2019-01-15T05:30:29.583Z,70.30
2019-01-15T05:32:57.868Z,70.70
2019-01-15T05:35:25.812Z,71.10
2019-01-15T05:37:54.053Z,70.20
2019-01-15T05:40:22.030Z,70.90
2019-01-15T05:42:50.325Z,71.30
2019-01-15T05:45:26.141Z,71.40
2019-01-15T05:47:56.299Z,71.30
2019-01-15T05:50:37.352Z,71.30
2019-01-15T05:53:05.622Z,71.40
2019-01-15T05:55:33.966Z,71.10
2019-01-15T05:58:02.018Z,71.70
2019-01-15T06:00:30.322Z,71.80
2019-01-15T06:02:58.349Z,72.30
2019-01-15T06:05:26.771Z,71.30
2019-01-15T06:07:55.069Z,71.40
2019-01-15T06:10:23.455Z,71.30
2019-01-15T06:12:51.527Z,72.00
2019-01-15T06:15:19.518Z,72.30
2019-01-15T06:17:47.526Z,72.60
2019-01-15T06:20:16.237Z,72.90
2019-01-15T06:22:44.603Z,72.90
2019-01-15T06:25:12.565Z,72.80
2019-01-15T06:27:40.869Z,72.90
2019-01-15T06:30:11.779Z,72.90
2019-01-15T06:32:39.756Z,72.90
2019-01-15T06:35:07.749Z,72.90
2019-01-15T06:37:35.768Z,71.90
2019-01-15T06:40:05.271Z,72.60
2019-01-15T06:42:33.207Z,72.70
2019-01-15T06:45:01.202Z,72.40
2019-01-15T06:47:29.130Z,73.00
2019-01-15T06:49:57.376Z,73.00
2019-01-15T06:52:25.871Z,73.90
2019-01-15T06:54:54.547Z,73.40
2019-01-15T06:57:23.245Z,72.90
2019-01-15T06:59:51.182Z,72.50
2019-01-15T07:02:19.131Z,73.00
2019-01-15T07:04:47.111Z,73.00
2019-01-15T07:07:15.406Z,73.00
2019-01-15T07:09:43.372Z,73.50
2019-01-15T07:12:11.401Z,72.90
2019-01-15T07:14:39.734Z,73.30
2019-01-15T07:17:07.677Z,72.10
2019-01-15T07:19:35.671Z,73.10
2019-01-15T07:22:04.154Z,72.60
2019-01-15T07:24:32.105Z,72.20
2019-01-15T07:29:28.925Z,72.30
2019-01-15T07:31:57.268Z,72.50
2019-01-15T07:34:25.521Z,75.30
2019-01-15T07:36:54.029Z,74.90
2019-01-15T07:39:22.041Z,72.50
2019-01-15T07:41:50.167Z,72.80
2019-01-15T07:44:18.947Z,72.70
2019-01-15T07:46:46.947Z,73.10
2019-01-15T07:49:14.893Z,71.90
2019-01-15T07:51:42.904Z,71.60
2019-01-15T07:54:11.032Z,71.40
2019-01-15T07:56:39.112Z,71.80
2019-01-15T08:01:35.626Z,72.00
2019-01-15T08:04:03.569Z,72.00
2019-01-15T08:06:31.529Z,72.50
2019-01-15T08:08:59.475Z,72.30
2019-01-15T08:11:28.511Z,71.90
2019-01-15T08:13:56.693Z,72.40
2019-01-15T08:16:24.955Z,71.90
2019-01-15T08:18:52.952Z,72.00
2019-01-15T08:21:21.534Z,73.00
2019-01-15T08:23:49.899Z,72.40
2019-01-15T08:26:17.865Z,73.00
2019-01-15T08:28:45.917Z,72.50
2019-01-15T08:31:14.537Z,72.30
2019-01-15T08:33:42.567Z,72.20
2019-01-15T08:36:10.519Z,71.40
2019-01-15T08:38:38.819Z,71.80
2019-01-15T08:43:35.225Z,71.20
2019-01-15T08:46:03.523Z,71.50
2019-01-15T08:48:32.392Z,71.90
2019-01-15T08:52:44.208Z,71.20
2019-01-15T08:55:13.780Z,71.90
2019-01-15T08:57:41.970Z,71.70
2019-01-15T09:00:11.421Z,72.40
2019-01-15T09:02:40.886Z,71.20
2019-01-15T09:05:08.993Z,71.30
2019-01-15T09:07:37.344Z,71.90
2019-01-15T09:10:08.043Z,70.00
2019-01-15T09:12:36.368Z,70.30
2019-01-15T09:15:06.857Z,69.90
2019-01-15T09:17:34.817Z,69.00
2019-01-15T09:20:04.935Z,68.50
2019-01-15T09:22:33.485Z,65.90
2019-01-15T09:25:01.758Z,66.40
2019-01-15T09:27:30.075Z,67.20
2019-01-15T09:29:58.271Z,67.00
2019-01-15T09:32:26.329Z,67.00
2019-01-15T09:34:54.666Z,65.80
2019-01-15T09:37:22.798Z,65.40
2019-01-15T09:39:50.882Z,65.50
2019-01-15T09:42:19.164Z,63.80
2019-01-15T09:44:47.679Z,64.30
2019-01-15T09:47:17.216Z,64.40
2019-01-15T09:49:45.616Z,64.30
2019-01-15T09:52:20.479Z,63.90
2019-01-15T09:54:43.978Z,63.30
2019-01-15T09:57:11.946Z,63.30
2019-01-15T09:59:40.223Z,64.20
2019-01-15T10:02:08.160Z,64.00
2019-01-15T10:04:36.643Z,63.10
2019-01-15T10:07:04.780Z,63.30
2019-01-15T10:09:32.818Z,60.60
2019-01-15T10:12:00.920Z,61.20
2019-01-15T10:14:28.944Z,61.40
2019-01-15T10:16:57.157Z,61.50
2019-01-15T10:19:25.534Z,59.70
2019-01-15T10:21:53.852Z,61.10
2019-01-15T10:24:22.025Z,61.50
2019-01-15T10:26:49.994Z,61.60
2019-01-15T10:29:19.427Z,62.50
2019-01-15T10:33:03.999Z,61.90
2019-01-15T10:36:02.725Z,61.80
2019-01-15T10:38:32.015Z,61.10
2019-01-15T10:41:00.989Z,60.80
2019-01-15T10:43:33.447Z,61.50
2019-01-15T10:46:01.939Z,61.60
2019-01-15T10:48:30.136Z,61.60
2019-01-15T10:50:58.142Z,61.00
2019-01-15T10:53:26.731Z,61.80
2019-01-15T10:55:54.833Z,60.80
2019-01-15T10:58:22.949Z,59.70
2019-01-15T11:00:50.923Z,60.00
2019-01-15T11:03:18.914Z,59.30
2019-01-15T11:05:46.922Z,60.10
2019-01-15T11:08:15.121Z,59.20
2019-01-15T11:10:43.400Z,59.60
2019-01-15T11:13:11.673Z,58.60
2019-01-15T11:15:43.370Z,58.70
2019-01-15T11:18:09.620Z,59.00
2019-01-15T11:20:38.357Z,58.80
2019-01-15T11:23:06.435Z,57.50
2019-01-15T11:25:34.435Z,57.90
2019-01-15T11:28:02.412Z,58.60
2019-01-15T11:30:30.405Z,58.50
2019-01-15T11:32:58.696Z,58.00
2019-01-15T11:35:27.025Z,56.90
2019-01-15T11:37:55.679Z,57.10
2019-01-15T11:40:25.243Z,57.10
2019-01-15T11:42:53.551Z,55.00
2019-01-15T11:45:21.525Z,56.20
2019-01-15T11:47:49.718Z,56.60
2019-01-15T11:50:17.957Z,55.30
2019-01-15T11:52:45.891Z,55.80
2019-01-15T11:55:13.842Z,55.50
2019-01-15T11:57:43.503Z,55.80
2019-01-15T12:00:23.339Z,55.90
2019-01-15T12:03:00.014Z,55.30
2019-01-15T12:05:47.677Z,56.00
2019-01-15T12:08:40.425Z,55.70
2019-01-15T12:11:26.928Z,56.50
2019-01-15T12:14:29.922Z,56.60
2019-01-15T12:17:32.982Z,56.70
2019-01-15T12:20:23.387Z,57.20
2019-01-15T12:23:09.674Z,56.80
2019-01-15T12:26:07.514Z,56.80
2019-01-15T12:31:38.538Z,57.20
2019-01-15T12:34:35.015Z,57.40
2019-01-15T12:37:28.308Z,58.20
2019-01-15T12:40:09.306Z,58.40
2019-01-15T12:43:03.203Z,58.40
2019-01-15T12:46:00.247Z,59.00
2019-01-15T12:48:50.681Z,59.30
2019-01-15T12:51:37.157Z,59.10
2019-01-15T12:54:31.121Z,59.40
2019-01-15T12:57:21.595Z,59.80
2019-01-15T13:00:27.890Z,59.60
2019-01-15T13:03:21.250Z,59.80
2019-01-15T13:06:11.627Z,59.60
2019-01-15T13:09:00.145Z,60.00
2019-01-15T13:12:03.175Z,60.00
2019-01-15T13:17:52.658Z,60.00
2019-01-15T13:20:42.951Z,60.50
2019-01-15T13:23:45.770Z,60.60
2019-01-15T13:29:32.573Z,60.00
2019-01-15T13:32:20.160Z,59.60
2019-01-15T13:35:06.900Z,60.00
2019-01-15T13:37:57.541Z,60.50
2019-01-15T13:40:33.203Z,59.80
2019-01-15T13:43:13.939Z,60.60
2019-01-15T13:48:52.896Z,59.80
2019-01-15T13:51:59.060Z,61.90
2019-01-15T13:55:01.653Z,61.20
2019-01-15T13:57:41.830Z,61.60
2019-01-15T14:00:26.422Z,60.90
2019-01-15T14:03:13.554Z,61.40
2019-01-15T14:06:01.380Z,61.20
2019-01-15T14:08:42.039Z,61.40
2019-01-15T14:11:28.266Z,61.00
2019-01-15T14:14:31.132Z,61.20
2019-01-15T14:20:07.997Z,60.90
2019-01-15T14:22:50.180Z,61.10
2019-01-15T14:25:35.070Z,61.60
2019-01-15T14:28:25.899Z,61.10
2019-01-15T14:31:17.874Z,60.90
2019-01-15T14:36:58.652Z,61.20
2019-01-15T14:39:49.940Z,61.20
2019-01-15T14:42:38.019Z,61.90
2019-01-15T14:45:31.329Z,62.60
2019-01-15T14:48:17.877Z,60.50
2019-01-15T14:51:06.057Z,60.90
2019-01-15T14:53:46.467Z,61.00
2019-01-15T14:56:37.560Z,61.10
2019-01-15T14:59:38.685Z,61.30
2019-01-15T15:02:28.689Z,61.20
2019-01-15T15:05:20.049Z,61.50
2019-01-15T15:08:09.241Z,61.80
2019-01-15T15:10:44.038Z,62.00
2019-01-15T15:13:22.733Z,61.70
2019-01-15T15:16:08.795Z,61.10
2019-01-15T15:18:56.682Z,61.40
2019-01-15T15:21:46.883Z,61.70
2019-01-15T15:24:34.747Z,61.80
2019-01-15T15:27:15.734Z,61.50
2019-01-15T15:30:01.997Z,62.00
2019-01-15T15:32:48.765Z,61.20
2019-01-15T15:35:50.304Z,61.80
2019-01-15T15:38:38.772Z,61.90
2019-01-15T15:41:28.953Z,62.00
2019-01-15T15:44:05.607Z,62.60
2019-01-15T15:47:11.885Z,62.30
2019-01-15T15:49:58.613Z,61.80
2019-01-15T15:53:01.673Z,62.10
2019-01-15T15:55:40.620Z,61.80
2019-01-15T15:58:34.078Z,62.00
2019-01-15T16:01:21.716Z,61.60
2019-01-15T16:04:24.635Z,61.40
2019-01-15T16:07:21.922Z,62.00
2019-01-15T16:10:08.775Z,62.20
2019-01-15T16:15:48.624Z,62.90
2019-01-15T16:18:54.599Z,63.10
2019-01-15T16:21:33.020Z,63.60
2019-01-15T16:27:02.066Z,63.70
2019-01-15T16:29:49.956Z,63.90
2019-01-15T16:32:32.355Z,64.20
2019-01-15T16:35:29.807Z,64.00
2019-01-15T16:38:09.585Z,63.30
2019-01-15T16:41:00.255Z,63.20
2019-01-15T16:43:47.125Z,63.70
2019-01-15T16:46:33.092Z,64.30
2019-01-15T16:49:20.161Z,64.20
2019-01-15T16:52:26.376Z,63.10
2019-01-15T16:55:06.355Z,63.60
2019-01-15T16:57:52.657Z,64.10
2019-01-15T17:00:38.931Z,63.10
2019-01-15T17:03:32.454Z,63.30
2019-01-15T17:06:15.604Z,63.30
2019-01-15T17:09:02.104Z,62.70
2019-01-15T17:11:49.419Z,63.30
2019-01-15T17:14:37.050Z,63.30
2019-01-15T17:17:18.075Z,64.60
2019-01-15T17:20:01.670Z,63.80
2019-01-15T17:22:49.859Z,64.00
2019-01-15T17:25:38.439Z,64.40
2019-01-15T17:28:26.493Z,64.70
2019-01-15T17:31:10.573Z,64.20
2019-01-15T17:34:01.327Z,64.30
2019-01-15T17:36:39.905Z,64.60
2019-01-15T17:39:32.278Z,65.10
2019-01-15T17:42:20.327Z,65.50
2019-01-15T17:45:13.623Z,66.00
2019-01-15T17:48:13.644Z,65.40
2019-01-15T17:51:13.368Z,66.00
2019-01-15T17:53:59.554Z,66.40
2019-01-15T17:56:45.909Z,66.40
2019-01-15T17:59:26.631Z,66.80
2019-01-15T18:02:14.206Z,66.30
2019-01-15T18:05:14.023Z,67.40
2019-01-15T18:08:04.510Z,66.20
2019-01-15T18:10:57.209Z,66.50
2019-01-15T18:13:50.760Z,66.30
2019-01-15T18:16:48.374Z,66.30
2019-01-15T18:19:20.561Z,66.30
2019-01-15T18:22:23.855Z,66.90
2019-01-15T18:25:10.624Z,66.20
2019-01-15T18:28:18.907Z,66.40
2019-01-15T18:31:07.353Z,66.60
2019-01-15T18:33:58.043Z,65.90
2019-01-15T18:36:54.978Z,65.50
2019-01-15T18:39:43.691Z,65.90
2019-01-15T18:42:29.906Z,66.80
2019-01-15T18:45:07.695Z,66.10
2019-01-15T18:47:52.918Z,65.80
2019-01-15T18:50:39.668Z,65.70
2019-01-15T18:56:28.507Z,66.60
2019-01-15T18:59:15.118Z,66.00
2019-01-15T19:02:10.530Z,65.90
2019-01-15T19:04:56.945Z,66.50
2019-01-15T19:07:50.332Z,66.10
2019-01-15T19:10:42.074Z,65.90
2019-01-15T19:13:35.795Z,66.40
2019-01-15T19:16:26.402Z,66.30
2019-01-15T19:19:12.585Z,66.20
2019-01-15T19:21:59.918Z,65.80
2019-01-15T19:24:48.071Z,66.10
2019-01-15T19:27:36.472Z,66.00
2019-01-15T19:30:27.181Z,66.20
2019-01-15T19:33:33.677Z,66.60
2019-01-15T19:36:29.054Z,66.40
2019-01-15T19:39:29.801Z,67.10
2019-01-15T19:42:16.475Z,66.30
2019-01-15T19:45:06.586Z,66.50
2019-01-15T19:47:59.604Z,66.40
2019-01-15T19:50:45.961Z,66.70
2019-01-15T19:53:32.561Z,66.60
2019-01-15T19:56:26.434Z,66.40
2019-01-15T19:59:04.837Z,66.90
2019-01-15T20:02:01.291Z,67.60
2019-01-15T20:04:54.668Z,66.90
2019-01-15T20:07:54.559Z,67.40
2019-01-15T20:10:50.700Z,66.20
2019-01-15T20:13:35.597Z,66.20
2019-01-15T20:16:23.525Z,66.80
2019-01-15T20:22:00.179Z,66.40
2019-01-15T20:24:51.008Z,66.20
2019-01-15T20:27:38.478Z,66.20
2019-01-15T20:30:37.673Z,66.30
2019-01-15T20:33:16.863Z,66.90
2019-01-15T20:36:10.495Z,66.20
2019-01-15T20:39:06.904Z,67.00
2019-01-15T20:44:59.698Z,66.00
2019-01-15T20:47:47.243Z,66.40
2019-01-15T20:53:23.349Z,65.50
2019-01-15T20:56:17.547Z,65.30
2019-01-15T20:59:11.371Z,64.70
2019-01-15T21:02:08.273Z,64.70
2019-01-15T21:05:08.571Z,64.60
2019-01-15T21:07:58.827Z,64.70
2019-01-15T21:10:46.752Z,64.70
2019-01-15T21:13:26.746Z,64.50
2019-01-15T21:16:14.012Z,64.40
2019-01-15T21:19:07.798Z,65.00
2019-01-15T21:21:58.417Z,64.70
2019-01-15T21:24:57.155Z,64.50
2019-01-15T21:27:47.821Z,64.90
2019-01-15T21:30:26.261Z,64.80
2019-01-15T21:33:19.919Z,64.70
2019-01-15T21:36:07.503Z,64.50
2019-01-15T21:41:35.417Z,64.60
2019-01-15T21:44:41.593Z,65.40
2019-01-15T21:47:22.892Z,64.50
2019-01-15T21:50:10.627Z,65.10
2019-01-15T21:52:58.719Z,64.40
2019-01-15T21:55:38.710Z,64.60
2019-01-15T21:58:29.333Z,64.40
2019-01-15T22:01:19.893Z,64.20
2019-01-15T22:04:22.695Z,65.00
2019-01-15T22:07:10.291Z,64.90
2019-01-15T22:10:13.180Z,64.10
2019-01-15T22:12:59.198Z,63.70
2019-01-15T22:15:46.827Z,63.70
2019-01-15T22:18:35.564Z,63.80
2019-01-15T22:21:23.203Z,63.00
2019-01-15T22:24:17.124Z,62.90
2019-01-15T22:27:01.227Z,62.90
2019-01-15T22:29:51.889Z,62.00
2019-01-15T22:32:28.483Z,61.20
2019-01-15T22:35:34.399Z,61.80
2019-01-15T22:38:21.279Z,62.20
2019-01-15T22:41:03.476Z,61.10
2019-01-15T22:43:38.206Z,61.40
2019-01-15T22:46:24.575Z,61.10
2019-01-15T22:49:28.082Z,62.00
2019-01-15T22:52:18.174Z,61.40
2019-01-15T22:55:17.983Z,60.90
2019-01-15T22:58:04.369Z,60.80
2019-01-15T23:00:57.868Z,61.50
2019-01-15T23:03:46.935Z,61.30
2019-01-15T23:06:43.663Z,61.40
2019-01-15T23:09:38.858Z,61.50
2019-01-15T23:12:23.038Z,61.30
2019-01-15T23:17:54.666Z,61.60
2019-01-15T23:20:40.912Z,61.80
2019-01-15T23:23:26.020Z,62.60
2019-01-15T23:26:12.601Z,62.50
2019-01-15T23:29:00.387Z,62.40
2019-01-15T23:31:47.210Z,62.70
2019-01-15T23:34:23.068Z,62.70
2019-01-15T23:37:10.651Z,63.00
2019-01-15T23:40:01.004Z,63.20
2019-01-15T23:42:54.515Z,63.00
2019-01-15T23:45:41.794Z,63.10
2019-01-15T23:48:28.000Z,62.60
2019-01-15T23:51:09.213Z,62.70
2019-01-15T23:53:53.625Z,62.80
2019-01-15T23:56:51.851Z,62.90
2019-01-15T23:59:38.737Z,63.70
